sensor_id;sensor_type;location;lat;lon;timestamp;P1;durP1;ratioP1;P2;durP2;ratioP2
5688;SDS011;2869;50.432;8.680;2023-07-02T00:01:43;9.23;;;4.43;;
5688;SDS011;2869;50.432;8.680;2023-07-02T00:04:10;4.87;;;4.37;;
5688;SDS011;2869;50.432;8.680;2023-07-02T00:06:38;6.73;;;4.43;;
5688;SDS011;2869;50.432;8.680;2023-07-02T00:09:05;4.17;;;3.77;;
5688;SDS011;2869;50.432;8.680;2023-07-02T00:11:32;6.63;;;4.57;;
5688;SDS011;2869;50.432;8.680;2023-07-02T00:13:58;4.43;;;3.93;;
5688;SDS011;2869;50.432;8.680;2023-07-02T00:16:25;5.03;;;4.57;;
5688;SDS011;2869;50.432;8.680;2023-07-02T00:18:53;5.40;;;4.03;;
5688;SDS011;2869;50.432;8.680;2023-07-02T00:21:20;6.30;;;4.40;;
5688;SDS011;2869;50.432;8.680;2023-07-02T00:23:47;7.57;;;4.10;;
5688;SDS011;2869;50.432;8.680;2023-07-02T00:26:13;4.37;;;3.97;;
5688;SDS011;2869;50.432;8.680;2023-07-02T00:28:40;5.53;;;4.63;;
5688;SDS011;2869;50.432;8.680;2023-07-02T00:31:07;4.47;;;3.97;;
5688;SDS011;2869;50.432;8.680;2023-07-02T00:33:34;4.67;;;4.10;;
5688;SDS011;2869;50.432;8.680;2023-07-02T00:36:02;4.47;;;4.03;;
5688;SDS011;2869;50.432;8.680;2023-07-02T00:38:29;5.33;;;4.07;;
5688;SDS011;2869;50.432;8.680;2023-07-02T00:40:55;5.93;;;3.60;;
5688;SDS011;2869;50.432;8.680;2023-07-02T00:43:22;3.93;;;3.63;;
5688;SDS011;2869;50.432;8.680;2023-07-02T00:45:49;5.10;;;4.27;;
5688;SDS011;2869;50.432;8.680;2023-07-02T00:48:16;4.80;;;3.70;;
5688;SDS011;2869;50.432;8.680;2023-07-02T00:50:42;4.30;;;3.60;;
5688;SDS011;2869;50.432;8.680;2023-07-02T00:53:10;4.90;;;4.00;;
5688;SDS011;2869;50.432;8.680;2023-07-02T00:55:37;12.63;;;4.17;;
5688;SDS011;2869;50.432;8.680;2023-07-02T00:58:04;12.33;;;3.97;;
5688;SDS011;2869;50.432;8.680;2023-07-02T01:00:31;4.23;;;3.83;;
5688;SDS011;2869;50.432;8.680;2023-07-02T01:02:58;3.70;;;3.40;;
5688;SDS011;2869;50.432;8.680;2023-07-02T01:05:25;4.13;;;3.83;;
5688;SDS011;2869;50.432;8.680;2023-07-02T01:08:00;4.33;;;3.43;;
5688;SDS011;2869;50.432;8.680;2023-07-02T01:10:28;5.53;;;3.77;;
5688;SDS011;2869;50.432;8.680;2023-07-02T01:12:56;9.23;;;4.37;;
5688;SDS011;2869;50.432;8.680;2023-07-02T01:15:26;4.37;;;3.93;;
5688;SDS011;2869;50.432;8.680;2023-07-02T01:17:53;4.13;;;3.73;;
5688;SDS011;2869;50.432;8.680;2023-07-02T01:20:21;4.63;;;4.00;;
5688;SDS011;2869;50.432;8.680;2023-07-02T01:22:49;10.70;;;4.10;;
5688;SDS011;2869;50.432;8.680;2023-07-02T01:25:17;5.80;;;4.43;;
5688;SDS011;2869;50.432;8.680;2023-07-02T01:27:49;5.93;;;4.40;;
5688;SDS011;2869;50.432;8.680;2023-07-02T01:30:16;6.33;;;4.70;;
5688;SDS011;2869;50.432;8.680;2023-07-02T01:32:43;4.60;;;4.30;;
5688;SDS011;2869;50.432;8.680;2023-07-02T01:35:09;9.90;;;4.60;;
5688;SDS011;2869;50.432;8.680;2023-07-02T01:37:37;4.20;;;3.90;;
5688;SDS011;2869;50.432;8.680;2023-07-02T01:40:04;4.90;;;4.40;;
5688;SDS011;2869;50.432;8.680;2023-07-02T01:42:33;5.73;;;3.70;;
5688;SDS011;2869;50.432;8.680;2023-07-02T01:45:00;6.70;;;4.00;;
5688;SDS011;2869;50.432;8.680;2023-07-02T01:47:26;4.27;;;3.87;;
5688;SDS011;2869;50.432;8.680;2023-07-02T01:49:53;6.00;;;3.87;;
5688;SDS011;2869;50.432;8.680;2023-07-02T01:52:20;4.10;;;3.73;;
5688;SDS011;2869;50.432;8.680;2023-07-02T01:54:48;4.50;;;4.10;;
5688;SDS011;2869;50.432;8.680;2023-07-02T01:57:15;4.30;;;3.90;;
5688;SDS011;2869;50.432;8.680;2023-07-02T01:59:41;9.27;;;4.10;;
5688;SDS011;2869;50.432;8.680;2023-07-02T02:02:08;4.67;;;4.10;;
5688;SDS011;2869;50.432;8.680;2023-07-02T02:04:34;4.67;;;4.17;;
5688;SDS011;2869;50.432;8.680;2023-07-02T02:07:01;4.93;;;4.47;;
5688;SDS011;2869;50.432;8.680;2023-07-02T02:09:28;4.87;;;4.47;;
5688;SDS011;2869;50.432;8.680;2023-07-02T02:11:58;8.67;;;4.60;;
5688;SDS011;2869;50.432;8.680;2023-07-02T02:14:25;4.47;;;3.80;;
5688;SDS011;2869;50.432;8.680;2023-07-02T02:16:51;7.53;;;4.37;;
5688;SDS011;2869;50.432;8.680;2023-07-02T02:19:18;4.63;;;3.67;;
5688;SDS011;2869;50.432;8.680;2023-07-02T02:21:45;4.17;;;3.87;;
5688;SDS011;2869;50.432;8.680;2023-07-02T02:24:11;4.30;;;3.90;;
5688;SDS011;2869;50.432;8.680;2023-07-02T02:26:38;4.90;;;4.40;;
5688;SDS011;2869;50.432;8.680;2023-07-02T02:29:07;4.43;;;4.03;;
5688;SDS011;2869;50.432;8.680;2023-07-02T02:31:34;5.00;;;4.47;;
5688;SDS011;2869;50.432;8.680;2023-07-02T02:34:00;8.20;;;4.40;;
5688;SDS011;2869;50.432;8.680;2023-07-02T02:36:27;6.00;;;4.30;;
5688;SDS011;2869;50.432;8.680;2023-07-02T02:38:53;7.30;;;4.67;;
5688;SDS011;2869;50.432;8.680;2023-07-02T02:41:20;5.30;;;4.33;;
5688;SDS011;2869;50.432;8.680;2023-07-02T02:43:47;12.37;;;4.70;;
5688;SDS011;2869;50.432;8.680;2023-07-02T02:46:19;8.50;;;5.07;;
5688;SDS011;2869;50.432;8.680;2023-07-02T02:48:46;5.73;;;4.60;;
5688;SDS011;2869;50.432;8.680;2023-07-02T02:51:12;12.03;;;4.73;;
5688;SDS011;2869;50.432;8.680;2023-07-02T02:53:39;8.97;;;5.00;;
5688;SDS011;2869;50.432;8.680;2023-07-02T02:56:05;9.43;;;4.97;;
5688;SDS011;2869;50.432;8.680;2023-07-02T02:58:32;14.03;;;4.90;;
5688;SDS011;2869;50.432;8.680;2023-07-02T03:00:59;10.10;;;5.17;;
5688;SDS011;2869;50.432;8.680;2023-07-02T03:03:27;11.43;;;4.97;;
5688;SDS011;2869;50.432;8.680;2023-07-02T03:05:53;7.20;;;4.50;;
5688;SDS011;2869;50.432;8.680;2023-07-02T03:08:20;8.80;;;4.87;;
5688;SDS011;2869;50.432;8.680;2023-07-02T03:10:47;10.50;;;4.70;;
5688;SDS011;2869;50.432;8.680;2023-07-02T03:13:13;8.77;;;5.13;;
5688;SDS011;2869;50.432;8.680;2023-07-02T03:15:40;9.30;;;5.10;;
5688;SDS011;2869;50.432;8.680;2023-07-02T03:18:07;12.60;;;5.00;;
5688;SDS011;2869;50.432;8.680;2023-07-02T03:20:35;12.70;;;4.40;;
5688;SDS011;2869;50.432;8.680;2023-07-02T03:23:02;17.37;;;5.40;;
5688;SDS011;2869;50.432;8.680;2023-07-02T03:25:28;10.50;;;5.10;;
5688;SDS011;2869;50.432;8.680;2023-07-02T03:27:55;7.63;;;4.63;;
5688;SDS011;2869;50.432;8.680;2023-07-02T03:30:22;5.50;;;4.70;;
5688;SDS011;2869;50.432;8.680;2023-07-02T03:32:48;20.70;;;5.37;;
5688;SDS011;2869;50.432;8.680;2023-07-02T03:35:15;17.10;;;5.70;;
5688;SDS011;2869;50.432;8.680;2023-07-02T03:37:43;10.43;;;5.03;;
5688;SDS011;2869;50.432;8.680;2023-07-02T03:40:11;11.07;;;4.80;;
5688;SDS011;2869;50.432;8.680;2023-07-02T03:42:37;9.40;;;5.03;;
5688;SDS011;2869;50.432;8.680;2023-07-02T03:45:04;26.43;;;5.00;;
5688;SDS011;2869;50.432;8.680;2023-07-02T03:47:31;6.17;;;4.70;;
5688;SDS011;2869;50.432;8.680;2023-07-02T03:49:58;11.93;;;6.23;;
5688;SDS011;2869;50.432;8.680;2023-07-02T03:52:25;11.30;;;6.03;;
5688;SDS011;2869;50.432;8.680;2023-07-02T03:54:53;14.20;;;5.83;;
5688;SDS011;2869;50.432;8.680;2023-07-02T03:57:19;9.23;;;5.00;;
5688;SDS011;2869;50.432;8.680;2023-07-02T03:59:46;16.83;;;5.67;;
5688;SDS011;2869;50.432;8.680;2023-07-02T04:02:13;13.37;;;5.27;;
5688;SDS011;2869;50.432;8.680;2023-07-02T04:04:39;17.63;;;5.13;;
5688;SDS011;2869;50.432;8.680;2023-07-02T04:07:06;11.20;;;5.77;;
5688;SDS011;2869;50.432;8.680;2023-07-02T04:09:32;14.27;;;5.47;;
5688;SDS011;2869;50.432;8.680;2023-07-02T04:12:00;8.57;;;5.40;;
5688;SDS011;2869;50.432;8.680;2023-07-02T04:14:27;9.37;;;5.67;;
5688;SDS011;2869;50.432;8.680;2023-07-02T04:16:54;11.77;;;6.00;;
5688;SDS011;2869;50.432;8.680;2023-07-02T04:19:20;7.60;;;5.63;;
5688;SDS011;2869;50.432;8.680;2023-07-02T04:21:47;13.10;;;5.73;;
5688;SDS011;2869;50.432;8.680;2023-07-02T04:24:14;24.00;;;6.33;;
5688;SDS011;2869;50.432;8.680;2023-07-02T04:26:40;19.03;;;5.80;;
5688;SDS011;2869;50.432;8.680;2023-07-02T04:29:09;13.20;;;5.80;;
5688;SDS011;2869;50.432;8.680;2023-07-02T04:31:36;13.30;;;6.03;;
5688;SDS011;2869;50.432;8.680;2023-07-02T04:34:03;11.03;;;6.60;;
5688;SDS011;2869;50.432;8.680;2023-07-02T04:36:30;21.20;;;7.70;;
5688;SDS011;2869;50.432;8.680;2023-07-02T04:38:57;19.90;;;7.10;;
5688;SDS011;2869;50.432;8.680;2023-07-02T04:41:24;15.97;;;6.83;;
5688;SDS011;2869;50.432;8.680;2023-07-02T04:43:50;27.60;;;7.43;;
5688;SDS011;2869;50.432;8.680;2023-07-02T04:46:18;14.40;;;7.00;;
5688;SDS011;2869;50.432;8.680;2023-07-02T04:48:45;15.53;;;7.17;;
5688;SDS011;2869;50.432;8.680;2023-07-02T04:51:12;11.30;;;7.53;;
5688;SDS011;2869;50.432;8.680;2023-07-02T04:53:39;19.00;;;7.47;;
5688;SDS011;2869;50.432;8.680;2023-07-02T04:56:05;17.53;;;7.60;;
5688;SDS011;2869;50.432;8.680;2023-07-02T04:58:32;25.33;;;7.80;;
5688;SDS011;2869;50.432;8.680;2023-07-02T05:00:58;18.23;;;7.40;;
5688;SDS011;2869;50.432;8.680;2023-07-02T05:03:27;17.30;;;7.77;;
5688;SDS011;2869;50.432;8.680;2023-07-02T05:05:54;18.87;;;7.97;;
5688;SDS011;2869;50.432;8.680;2023-07-02T05:08:20;17.30;;;7.90;;
5688;SDS011;2869;50.432;8.680;2023-07-02T05:10:47;16.90;;;7.67;;
5688;SDS011;2869;50.432;8.680;2023-07-02T05:13:13;19.90;;;7.83;;
5688;SDS011;2869;50.432;8.680;2023-07-02T05:15:40;31.80;;;8.20;;
5688;SDS011;2869;50.432;8.680;2023-07-02T05:18:07;17.43;;;8.80;;
5688;SDS011;2869;50.432;8.680;2023-07-02T05:20:35;20.57;;;8.80;;
5688;SDS011;2869;50.432;8.680;2023-07-02T05:23:01;18.57;;;8.20;;
5688;SDS011;2869;50.432;8.680;2023-07-02T05:25:28;14.67;;;7.50;;
5688;SDS011;2869;50.432;8.680;2023-07-02T05:27:54;21.77;;;9.13;;
5688;SDS011;2869;50.432;8.680;2023-07-02T05:30:21;14.80;;;7.83;;
5688;SDS011;2869;50.432;8.680;2023-07-02T05:32:48;20.03;;;9.13;;
5688;SDS011;2869;50.432;8.680;2023-07-02T05:35:14;20.47;;;9.53;;
5688;SDS011;2869;50.432;8.680;2023-07-02T05:37:43;12.87;;;8.10;;
5688;SDS011;2869;50.432;8.680;2023-07-02T05:40:10;17.77;;;8.03;;
5688;SDS011;2869;50.432;8.680;2023-07-02T05:42:37;17.00;;;8.67;;
5688;SDS011;2869;50.432;8.680;2023-07-02T05:45:04;17.60;;;9.27;;
5688;SDS011;2869;50.432;8.680;2023-07-02T05:47:31;19.33;;;8.50;;
5688;SDS011;2869;50.432;8.680;2023-07-02T05:49:57;18.87;;;8.53;;
5688;SDS011;2869;50.432;8.680;2023-07-02T05:52:24;19.07;;;8.90;;
5688;SDS011;2869;50.432;8.680;2023-07-02T05:54:52;14.40;;;8.57;;
5688;SDS011;2869;50.432;8.680;2023-07-02T05:57:19;17.93;;;8.83;;
5688;SDS011;2869;50.432;8.680;2023-07-02T05:59:45;16.17;;;8.70;;
5688;SDS011;2869;50.432;8.680;2023-07-02T06:02:12;16.83;;;9.27;;
5688;SDS011;2869;50.432;8.680;2023-07-02T06:04:38;16.83;;;9.33;;
5688;SDS011;2869;50.432;8.680;2023-07-02T06:07:05;19.23;;;10.00;;
5688;SDS011;2869;50.432;8.680;2023-07-02T06:09:32;22.00;;;9.20;;
5688;SDS011;2869;50.432;8.680;2023-07-02T06:12:00;16.63;;;9.17;;
5688;SDS011;2869;50.432;8.680;2023-07-02T06:14:26;17.60;;;10.07;;
5688;SDS011;2869;50.432;8.680;2023-07-02T06:16:53;23.57;;;10.67;;
5688;SDS011;2869;50.432;8.680;2023-07-02T06:19:22;19.50;;;10.67;;
5688;SDS011;2869;50.432;8.680;2023-07-02T06:21:49;17.90;;;10.83;;
5688;SDS011;2869;50.432;8.680;2023-07-02T06:24:15;18.57;;;9.87;;
5688;SDS011;2869;50.432;8.680;2023-07-02T06:26:42;23.23;;;9.13;;
5688;SDS011;2869;50.432;8.680;2023-07-02T06:29:10;19.60;;;10.33;;
5688;SDS011;2869;50.432;8.680;2023-07-02T06:31:36;23.60;;;10.00;;
5688;SDS011;2869;50.432;8.680;2023-07-02T06:34:03;24.57;;;11.37;;
5688;SDS011;2869;50.432;8.680;2023-07-02T06:36:30;24.57;;;10.80;;
5688;SDS011;2869;50.432;8.680;2023-07-02T06:38:56;26.10;;;12.30;;
5688;SDS011;2869;50.432;8.680;2023-07-02T06:41:23;22.13;;;11.50;;
5688;SDS011;2869;50.432;8.680;2023-07-02T06:43:50;27.17;;;12.10;;
5688;SDS011;2869;50.432;8.680;2023-07-02T06:46:18;22.10;;;11.40;;
5688;SDS011;2869;50.432;8.680;2023-07-02T06:48:45;19.93;;;12.10;;
5688;SDS011;2869;50.432;8.680;2023-07-02T06:51:12;25.23;;;12.90;;
5688;SDS011;2869;50.432;8.680;2023-07-02T06:53:39;23.07;;;12.40;;
5688;SDS011;2869;50.432;8.680;2023-07-02T06:56:07;20.03;;;11.77;;
5688;SDS011;2869;50.432;8.680;2023-07-02T06:58:34;27.53;;;13.50;;
5688;SDS011;2869;50.432;8.680;2023-07-02T07:01:00;23.30;;;11.90;;
5688;SDS011;2869;50.432;8.680;2023-07-02T07:03:28;27.63;;;13.20;;
5688;SDS011;2869;50.432;8.680;2023-07-02T07:05:55;24.07;;;14.13;;
5688;SDS011;2869;50.432;8.680;2023-07-02T07:08:22;32.73;;;14.20;;
5688;SDS011;2869;50.432;8.680;2023-07-02T07:10:49;26.80;;;14.00;;
5688;SDS011;2869;50.432;8.680;2023-07-02T07:13:16;30.27;;;14.83;;
5688;SDS011;2869;50.432;8.680;2023-07-02T07:15:43;30.10;;;14.63;;
5688;SDS011;2869;50.432;8.680;2023-07-02T07:18:09;27.47;;;13.97;;
5688;SDS011;2869;50.432;8.680;2023-07-02T07:20:38;27.07;;;14.90;;
5688;SDS011;2869;50.432;8.680;2023-07-02T07:23:05;34.80;;;14.10;;
5688;SDS011;2869;50.432;8.680;2023-07-02T07:25:32;27.20;;;14.07;;
5688;SDS011;2869;50.432;8.680;2023-07-02T07:27:59;34.87;;;13.87;;
5688;SDS011;2869;50.432;8.680;2023-07-02T07:30:26;25.90;;;14.50;;
5688;SDS011;2869;50.432;8.680;2023-07-02T07:32:53;36.20;;;14.63;;
5688;SDS011;2869;50.432;8.680;2023-07-02T07:35:20;24.40;;;13.63;;
5688;SDS011;2869;50.432;8.680;2023-07-02T07:37:48;27.10;;;13.30;;
5688;SDS011;2869;50.432;8.680;2023-07-02T07:40:16;29.97;;;15.40;;
5688;SDS011;2869;50.432;8.680;2023-07-02T07:42:43;37.37;;;14.53;;
5688;SDS011;2869;50.432;8.680;2023-07-02T07:45:10;29.87;;;14.87;;
5688;SDS011;2869;50.432;8.680;2023-07-02T07:47:37;22.00;;;11.83;;
5688;SDS011;2869;50.432;8.680;2023-07-02T07:50:04;24.93;;;13.70;;
5688;SDS011;2869;50.432;8.680;2023-07-02T07:52:35;28.93;;;15.57;;
5688;SDS011;2869;50.432;8.680;2023-07-02T07:55:04;30.10;;;15.03;;
5688;SDS011;2869;50.432;8.680;2023-07-02T07:57:31;30.23;;;15.57;;
5688;SDS011;2869;50.432;8.680;2023-07-02T07:59:57;25.17;;;13.40;;
5688;SDS011;2869;50.432;8.680;2023-07-02T08:02:24;32.80;;;14.43;;
5688;SDS011;2869;50.432;8.680;2023-07-02T08:04:51;26.40;;;14.70;;
5688;SDS011;2869;50.432;8.680;2023-07-02T08:07:17;25.83;;;15.00;;
5688;SDS011;2869;50.432;8.680;2023-07-02T08:09:44;24.93;;;13.60;;
5688;SDS011;2869;50.432;8.680;2023-07-02T08:12:12;27.00;;;13.27;;
5688;SDS011;2869;50.432;8.680;2023-07-02T08:14:39;26.37;;;13.57;;
5688;SDS011;2869;50.432;8.680;2023-07-02T08:17:05;30.17;;;14.13;;
5688;SDS011;2869;50.432;8.680;2023-07-02T08:19:32;26.60;;;12.57;;
5688;SDS011;2869;50.432;8.680;2023-07-02T08:21:58;24.07;;;12.97;;
5688;SDS011;2869;50.432;8.680;2023-07-02T08:24:25;25.00;;;14.27;;
5688;SDS011;2869;50.432;8.680;2023-07-02T08:26:52;24.90;;;13.50;;
5688;SDS011;2869;50.432;8.680;2023-07-02T08:29:20;31.80;;;13.50;;
5688;SDS011;2869;50.432;8.680;2023-07-02T08:31:46;23.50;;;13.37;;
5688;SDS011;2869;50.432;8.680;2023-07-02T08:34:13;28.43;;;13.10;;
5688;SDS011;2869;50.432;8.680;2023-07-02T08:36:39;25.83;;;14.13;;
5688;SDS011;2869;50.432;8.680;2023-07-02T08:39:08;24.87;;;14.73;;
5688;SDS011;2869;50.432;8.680;2023-07-02T08:41:41;23.17;;;13.80;;
5688;SDS011;2869;50.432;8.680;2023-07-02T08:44:08;24.77;;;12.90;;
5688;SDS011;2869;50.432;8.680;2023-07-02T08:46:38;24.23;;;13.80;;
5688;SDS011;2869;50.432;8.680;2023-07-02T08:49:05;29.90;;;13.80;;
5688;SDS011;2869;50.432;8.680;2023-07-02T08:51:32;33.17;;;14.73;;
5688;SDS011;2869;50.432;8.680;2023-07-02T08:53:59;26.93;;;15.00;;
5688;SDS011;2869;50.432;8.680;2023-07-02T08:56:25;28.57;;;13.77;;
5688;SDS011;2869;50.432;8.680;2023-07-02T08:58:52;24.77;;;13.37;;
5688;SDS011;2869;50.432;8.680;2023-07-02T09:01:19;29.50;;;14.40;;
5688;SDS011;2869;50.432;8.680;2023-07-02T09:03:48;24.27;;;13.43;;
5688;SDS011;2869;50.432;8.680;2023-07-02T09:06:17;20.43;;;12.27;;
5688;SDS011;2869;50.432;8.680;2023-07-02T09:08:45;25.90;;;13.37;;
5688;SDS011;2869;50.432;8.680;2023-07-02T09:11:12;23.07;;;11.50;;
5688;SDS011;2869;50.432;8.680;2023-07-02T09:13:43;19.43;;;11.90;;
5688;SDS011;2869;50.432;8.680;2023-07-02T09:16:24;24.13;;;11.80;;
5688;SDS011;2869;50.432;8.680;2023-07-02T09:18:59;20.93;;;11.67;;
5688;SDS011;2869;50.432;8.680;2023-07-02T09:21:27;24.90;;;11.77;;
5688;SDS011;2869;50.432;8.680;2023-07-02T09:24:11;19.00;;;10.95;;
5688;SDS011;2869;50.432;8.680;2023-07-02T09:26:41;27.67;;;12.48;;
5688;SDS011;2869;50.432;8.680;2023-07-02T09:29:08;25.03;;;11.80;;
5688;SDS011;2869;50.432;8.680;2023-07-02T09:31:42;21.27;;;11.80;;
5688;SDS011;2869;50.432;8.680;2023-07-02T09:34:11;20.33;;;11.53;;
5688;SDS011;2869;50.432;8.680;2023-07-02T09:36:38;18.50;;;10.50;;
5688;SDS011;2869;50.432;8.680;2023-07-02T09:39:06;19.23;;;11.23;;
5688;SDS011;2869;50.432;8.680;2023-07-02T09:41:33;22.27;;;11.77;;
5688;SDS011;2869;50.432;8.680;2023-07-02T09:44:01;16.53;;;10.20;;
5688;SDS011;2869;50.432;8.680;2023-07-02T09:46:28;21.07;;;11.60;;
5688;SDS011;2869;50.432;8.680;2023-07-02T09:48:56;19.50;;;11.50;;
5688;SDS011;2869;50.432;8.680;2023-07-02T09:51:25;17.57;;;10.90;;
5688;SDS011;2869;50.432;8.680;2023-07-02T09:53:52;17.40;;;11.10;;
5688;SDS011;2869;50.432;8.680;2023-07-02T09:56:19;18.07;;;10.87;;
5688;SDS011;2869;50.432;8.680;2023-07-02T09:58:46;16.70;;;10.07;;
5688;SDS011;2869;50.432;8.680;2023-07-02T10:01:13;20.30;;;11.33;;
5688;SDS011;2869;50.432;8.680;2023-07-02T10:03:39;25.30;;;12.20;;
5688;SDS011;2869;50.432;8.680;2023-07-02T10:06:06;20.33;;;11.57;;
5688;SDS011;2869;50.432;8.680;2023-07-02T10:08:35;23.90;;;10.40;;
5688;SDS011;2869;50.432;8.680;2023-07-02T10:11:08;22.80;;;11.70;;
5688;SDS011;2869;50.432;8.680;2023-07-02T10:13:35;17.67;;;11.03;;
5688;SDS011;2869;50.432;8.680;2023-07-02T10:16:03;22.73;;;12.20;;
5688;SDS011;2869;50.432;8.680;2023-07-02T10:18:30;28.13;;;12.90;;
5688;SDS011;2869;50.432;8.680;2023-07-02T10:20:57;22.50;;;12.10;;
5688;SDS011;2869;50.432;8.680;2023-07-02T10:23:32;21.80;;;10.87;;
5688;SDS011;2869;50.432;8.680;2023-07-02T10:26:09;22.83;;;11.67;;
5688;SDS011;2869;50.432;8.680;2023-07-02T10:28:36;20.60;;;11.63;;
5688;SDS011;2869;50.432;8.680;2023-07-02T10:31:03;20.60;;;11.30;;
5688;SDS011;2869;50.432;8.680;2023-07-02T10:33:29;24.30;;;11.90;;
5688;SDS011;2869;50.432;8.680;2023-07-02T10:35:56;21.70;;;11.43;;
5688;SDS011;2869;50.432;8.680;2023-07-02T10:38:23;24.33;;;11.60;;
5688;SDS011;2869;50.432;8.680;2023-07-02T10:40:55;17.47;;;11.30;;
5688;SDS011;2869;50.432;8.680;2023-07-02T10:43:25;22.60;;;11.87;;
5688;SDS011;2869;50.432;8.680;2023-07-02T10:45:53;19.90;;;11.50;;
5688;SDS011;2869;50.432;8.680;2023-07-02T10:48:20;23.00;;;12.07;;
5688;SDS011;2869;50.432;8.680;2023-07-02T10:50:47;20.57;;;12.43;;
5688;SDS011;2869;50.432;8.680;2023-07-02T10:53:14;20.33;;;12.93;;
5688;SDS011;2869;50.432;8.680;2023-07-02T10:55:41;15.73;;;10.43;;
5688;SDS011;2869;50.432;8.680;2023-07-02T10:58:10;19.53;;;10.80;;
5688;SDS011;2869;50.432;8.680;2023-07-02T11:00:44;19.17;;;10.40;;
5688;SDS011;2869;50.432;8.680;2023-07-02T11:03:17;22.50;;;11.97;;
5688;SDS011;2869;50.432;8.680;2023-07-02T11:05:45;14.00;;;9.90;;
5688;SDS011;2869;50.432;8.680;2023-07-02T11:08:12;17.03;;;10.77;;
5688;SDS011;2869;50.432;8.680;2023-07-02T11:10:39;25.13;;;11.77;;
5688;SDS011;2869;50.432;8.680;2023-07-02T11:13:13;30.93;;;12.30;;
5688;SDS011;2869;50.432;8.680;2023-07-02T11:15:41;26.17;;;11.63;;
5688;SDS011;2869;50.432;8.680;2023-07-02T11:18:08;24.40;;;11.80;;
5688;SDS011;2869;50.432;8.680;2023-07-02T11:20:35;17.63;;;10.67;;
5688;SDS011;2869;50.432;8.680;2023-07-02T11:23:02;17.50;;;10.93;;
5688;SDS011;2869;50.432;8.680;2023-07-02T11:25:29;19.27;;;12.23;;
5688;SDS011;2869;50.432;8.680;2023-07-02T11:28:01;18.97;;;11.40;;
5688;SDS011;2869;50.432;8.680;2023-07-02T11:30:30;17.03;;;9.93;;
5688;SDS011;2869;50.432;8.680;2023-07-02T11:32:56;19.30;;;11.10;;
5688;SDS011;2869;50.432;8.680;2023-07-02T11:35:33;20.33;;;11.90;;
5688;SDS011;2869;50.432;8.680;2023-07-02T11:38:00;19.50;;;11.90;;
5688;SDS011;2869;50.432;8.680;2023-07-02T11:40:27;18.77;;;10.77;;
5688;SDS011;2869;50.432;8.680;2023-07-02T11:42:54;18.33;;;10.10;;
5688;SDS011;2869;50.432;8.680;2023-07-02T11:45:20;16.47;;;10.33;;
5688;SDS011;2869;50.432;8.680;2023-07-02T11:47:48;21.20;;;11.40;;
5688;SDS011;2869;50.432;8.680;2023-07-02T11:50:15;16.00;;;9.33;;
5688;SDS011;2869;50.432;8.680;2023-07-02T11:52:41;22.67;;;10.87;;
5688;SDS011;2869;50.432;8.680;2023-07-02T11:55:08;19.47;;;10.90;;
5688;SDS011;2869;50.432;8.680;2023-07-02T11:57:35;16.30;;;9.80;;
5688;SDS011;2869;50.432;8.680;2023-07-02T12:00:02;20.53;;;10.80;;
5688;SDS011;2869;50.432;8.680;2023-07-02T12:02:29;17.67;;;10.70;;
5688;SDS011;2869;50.432;8.680;2023-07-02T12:04:57;19.67;;;10.30;;
5688;SDS011;2869;50.432;8.680;2023-07-02T12:07:23;20.80;;;10.33;;
5688;SDS011;2869;50.432;8.680;2023-07-02T12:09:50;23.20;;;11.30;;
5688;SDS011;2869;50.432;8.680;2023-07-02T12:12:17;17.20;;;10.13;;
5688;SDS011;2869;50.432;8.680;2023-07-02T12:14:43;19.40;;;11.43;;
5688;SDS011;2869;50.432;8.680;2023-07-02T12:17:10;19.60;;;10.70;;
5688;SDS011;2869;50.432;8.680;2023-07-02T12:19:37;20.60;;;10.90;;
5688;SDS011;2869;50.432;8.680;2023-07-02T12:22:05;15.90;;;10.40;;
5688;SDS011;2869;50.432;8.680;2023-07-02T12:24:32;19.27;;;10.37;;
5688;SDS011;2869;50.432;8.680;2023-07-02T12:26:59;23.67;;;10.00;;
5688;SDS011;2869;50.432;8.680;2023-07-02T12:29:26;17.97;;;10.17;;
5688;SDS011;2869;50.432;8.680;2023-07-02T12:31:52;18.67;;;10.40;;
5688;SDS011;2869;50.432;8.680;2023-07-02T12:34:19;18.93;;;10.30;;
5688;SDS011;2869;50.432;8.680;2023-07-02T12:36:46;18.00;;;10.13;;
5688;SDS011;2869;50.432;8.680;2023-07-02T12:39:13;19.27;;;11.27;;
5688;SDS011;2869;50.432;8.680;2023-07-02T12:41:40;24.50;;;12.40;;
5688;SDS011;2869;50.432;8.680;2023-07-02T12:44:07;17.33;;;10.10;;
5688;SDS011;2869;50.432;8.680;2023-07-02T12:46:33;15.70;;;10.03;;
5688;SDS011;2869;50.432;8.680;2023-07-02T12:49:00;18.60;;;9.90;;
5688;SDS011;2869;50.432;8.680;2023-07-02T12:51:27;18.60;;;11.00;;
5688;SDS011;2869;50.432;8.680;2023-07-02T12:53:53;15.83;;;10.20;;
5688;SDS011;2869;50.432;8.680;2023-07-02T12:56:21;19.60;;;9.73;;
5688;SDS011;2869;50.432;8.680;2023-07-02T12:58:48;20.80;;;10.50;;
5688;SDS011;2869;50.432;8.680;2023-07-02T13:01:16;22.27;;;10.10;;
5688;SDS011;2869;50.432;8.680;2023-07-02T13:03:44;24.70;;;9.90;;
5688;SDS011;2869;50.432;8.680;2023-07-02T13:06:12;15.50;;;9.40;;
5688;SDS011;2869;50.432;8.680;2023-07-02T13:08:38;16.10;;;10.30;;
5688;SDS011;2869;50.432;8.680;2023-07-02T13:11:05;19.40;;;10.50;;
5688;SDS011;2869;50.432;8.680;2023-07-02T13:13:33;19.03;;;10.47;;
5688;SDS011;2869;50.432;8.680;2023-07-02T13:16:01;16.77;;;10.50;;
5688;SDS011;2869;50.432;8.680;2023-07-02T13:18:27;16.60;;;9.97;;
5688;SDS011;2869;50.432;8.680;2023-07-02T13:20:54;19.47;;;9.80;;
5688;SDS011;2869;50.432;8.680;2023-07-02T13:23:20;14.93;;;10.30;;
5688;SDS011;2869;50.432;8.680;2023-07-02T13:25:47;17.30;;;10.47;;
5688;SDS011;2869;50.432;8.680;2023-07-02T13:28:14;17.80;;;10.87;;
5688;SDS011;2869;50.432;8.680;2023-07-02T13:30:42;20.47;;;9.73;;
5688;SDS011;2869;50.432;8.680;2023-07-02T13:33:09;20.90;;;11.27;;
5688;SDS011;2869;50.432;8.680;2023-07-02T13:35:35;18.30;;;10.23;;
5688;SDS011;2869;50.432;8.680;2023-07-02T13:38:03;18.23;;;9.80;;
5688;SDS011;2869;50.432;8.680;2023-07-02T13:40:30;16.73;;;10.57;;
5688;SDS011;2869;50.432;8.680;2023-07-02T13:42:57;17.23;;;9.90;;
5688;SDS011;2869;50.432;8.680;2023-07-02T13:45:23;19.50;;;10.70;;
5688;SDS011;2869;50.432;8.680;2023-07-02T13:47:51;22.07;;;11.80;;
5688;SDS011;2869;50.432;8.680;2023-07-02T13:50:18;20.73;;;11.13;;
5688;SDS011;2869;50.432;8.680;2023-07-02T13:52:45;23.20;;;11.37;;
5688;SDS011;2869;50.432;8.680;2023-07-02T13:55:13;19.20;;;12.40;;
5688;SDS011;2869;50.432;8.680;2023-07-02T13:57:39;19.40;;;11.90;;
5688;SDS011;2869;50.432;8.680;2023-07-02T14:00:08;25.20;;;13.00;;
5688;SDS011;2869;50.432;8.680;2023-07-02T14:02:35;18.80;;;11.57;;
5688;SDS011;2869;50.432;8.680;2023-07-02T14:05:02;23.57;;;11.90;;
5688;SDS011;2869;50.432;8.680;2023-07-02T14:07:29;19.30;;;10.60;;
5688;SDS011;2869;50.432;8.680;2023-07-02T14:09:56;18.70;;;11.53;;
5688;SDS011;2869;50.432;8.680;2023-07-02T14:12:22;20.63;;;11.73;;
5688;SDS011;2869;50.432;8.680;2023-07-02T14:14:49;18.40;;;12.00;;
5688;SDS011;2869;50.432;8.680;2023-07-02T14:17:17;23.13;;;12.07;;
5688;SDS011;2869;50.432;8.680;2023-07-02T14:19:43;22.53;;;11.60;;
5688;SDS011;2869;50.432;8.680;2023-07-02T14:22:10;24.00;;;11.83;;
5688;SDS011;2869;50.432;8.680;2023-07-02T14:24:37;17.53;;;11.33;;
5688;SDS011;2869;50.432;8.680;2023-07-02T14:27:04;19.00;;;10.53;;
5688;SDS011;2869;50.432;8.680;2023-07-02T14:29:31;23.13;;;12.27;;
5688;SDS011;2869;50.432;8.680;2023-07-02T14:31:58;26.30;;;13.27;;
5688;SDS011;2869;50.432;8.680;2023-07-02T14:34:26;21.37;;;12.47;;
5688;SDS011;2869;50.432;8.680;2023-07-02T14:36:53;22.70;;;12.73;;
5688;SDS011;2869;50.432;8.680;2023-07-02T14:39:19;23.93;;;11.50;;
5688;SDS011;2869;50.432;8.680;2023-07-02T14:41:47;22.23;;;12.40;;
5688;SDS011;2869;50.432;8.680;2023-07-02T14:44:14;22.90;;;12.03;;
5688;SDS011;2869;50.432;8.680;2023-07-02T14:46:41;23.27;;;13.03;;
5688;SDS011;2869;50.432;8.680;2023-07-02T14:49:08;22.07;;;11.90;;
5688;SDS011;2869;50.432;8.680;2023-07-02T14:51:36;26.30;;;13.60;;
5688;SDS011;2869;50.432;8.680;2023-07-02T14:54:02;25.00;;;12.30;;
5688;SDS011;2869;50.432;8.680;2023-07-02T14:56:31;23.90;;;12.90;;
5688;SDS011;2869;50.432;8.680;2023-07-02T14:58:58;21.30;;;11.52;;